Time;durP1;ratioP1;P1;durP2;ratioP2;P2;SDS_P1;SDS_P2;PMS_P1;PMS_P2;Temp;Humidity;BMP_temperature;BMP_pressure;BME280_temperature;BME280_humidity;BME280_pressure;Samples;Min_cycle;Max_cycle;Signal;HPM_P1;HPM_P2
2024/01/21 00:02:21;;;;;;;102.47;35.23;;;;;;;4.70;65.35;100234.72;5114954;28;20254;-94
2024/01/21 00:04:50;;;;;;;88.90;35.03;;;;;;;4.67;64.83;100237.34;5114105;28;20642;-94
2024/01/21 00:07:17;;;;;;;83.77;29.73;;;;;;;4.62;64.68;100231.34;5099269;28;20692;-94
2024/01/21 00:09:44;;;;;;;123.37;40.07;;;;;;;4.64;64.54;100236.53;5116739;28;20271;-95
2024/01/21 00:12:10;;;;;;;86.90;31.03;;;;;;;4.57;64.11;100229.66;5113239;28;20211;-94
2024/01/21 00:14:37;;;;;;;323.03;108.13;;;;;;;4.55;63.74;100236.63;5096074;28;20204;-94
2024/01/21 00:17:04;;;;;;;65.17;24.60;;;;;;;4.48;64.35;100227.19;5096125;28;20172;-93
2024/01/21 00:19:31;;;;;;;10.87;5.57;;;;;;;4.39;64.19;100237.66;5096347;28;20178;-94
2024/01/21 00:21:57;;;;;;;19.27;6.77;;;;;;;4.33;63.85;100244.63;5130455;28;20176;-94
2024/01/21 00:24:24;;;;;;;3.67;2.07;;;;;;;4.15;64.33;100244.81;5114229;28;20542;-94
2024/01/21 00:26:50;;;;;;;3.37;1.33;;;;;;;4.07;64.54;100238.81;5116409;28;20171;-94
2024/01/21 00:29:16;;;;;;;4.20;1.80;;;;;;;3.99;65.00;100240.63;5094285;28;20338;-93
2024/01/21 00:31:43;;;;;;;2.10;1.37;;;;;;;3.82;65.62;100247.69;5092655;28;20251;-93
2024/01/21 00:34:10;;;;;;;3.70;1.60;;;;;;;3.64;66.14;100248.66;5092944;28;20204;-93
2024/01/21 00:36:35;;;;;;;4.40;2.73;;;;;;;3.54;66.53;100253.91;5113121;28;20175;-94
2024/01/21 00:39:02;;;;;;;4.00;3.00;;;;;;;3.47;67.05;100260.00;5114825;28;20245;-94
2024/01/21 00:41:29;;;;;;;3.37;1.80;;;;;;;3.48;67.08;100262.63;5108082;28;20554;-93
2024/01/21 00:43:54;;;;;;;2.43;1.40;;;;;;;3.46;66.91;100263.50;5096679;28;20172;-93
2024/01/21 00:46:20;;;;;;;3.70;1.37;;;;;;;3.32;66.93;100266.16;5096750;28;20191;-94
2024/01/21 00:48:46;;;;;;;2.97;1.33;;;;;;;3.30;67.58;100261.84;5097443;28;20165;-94
2024/01/21 00:51:12;;;;;;;4.13;1.93;;;;;;;3.25;68.16;100266.22;5096713;28;20191;-94
2024/01/21 00:53:38;;;;;;;2.87;1.83;;;;;;;3.29;67.94;100270.50;5097391;28;20322;-93
2024/01/21 00:56:05;;;;;;;3.53;1.57;;;;;;;3.29;67.71;100262.72;5096940;28;20215;-93
2024/01/21 00:58:32;;;;;;;4.50;1.80;;;;;;;3.29;67.61;100270.50;5096170;28;20179;-93
2024/01/21 01:00:57;;;;;;;3.37;1.83;;;;;;;3.15;68.45;100274.88;5095983;28;20180;-94
2024/01/21 01:03:24;;;;;;;6.20;2.67;;;;;;;3.09;68.85;100263.66;5096040;28;20743;-92
2024/01/21 01:05:51;;;;;;;6.10;2.97;;;;;;;3.07;68.80;100264.53;5097048;28;20324;-93
2024/01/21 01:08:17;;;;;;;6.00;2.70;;;;;;;3.04;69.08;100259.38;5097122;28;20169;-95
2024/01/21 01:10:44;;;;;;;5.57;2.40;;;;;;;3.03;69.53;100270.63;5096214;28;20195;-92
2024/01/21 01:13:10;;;;;;;7.33;3.37;;;;;;;3.06;70.32;100274.06;5096690;28;20179;-94
2024/01/21 01:15:37;;;;;;;8.87;3.37;;;;;;;3.13;70.17;100268.84;5115114;28;20199;-93
2024/01/21 01:18:03;;;;;;;14.17;5.43;;;;;;;3.05;70.63;100267.16;5116625;28;20176;-93
2024/01/21 01:20:29;;;;;;;11.80;5.27;;;;;;;3.09;70.26;100268.84;5116300;28;20172;-93
2024/01/21 01:22:58;;;;;;;14.77;5.83;;;;;;;3.12;70.69;100267.13;5116021;28;20190;-94
2024/01/21 01:25:26;;;;;;;8.70;3.57;;;;;;;3.15;70.23;100267.97;5115873;28;20174;-94
2024/01/21 01:27:53;;;;;;;10.60;3.40;;;;;;;3.22;70.47;100264.50;5115935;28;20179;-94
2024/01/21 01:30:18;;;;;;;8.53;4.07;;;;;;;3.28;70.25;100271.34;5115565;28;20215;-93
2024/01/21 01:32:45;;;;;;;12.03;4.63;;;;;;;3.18;70.52;100269.66;5079055;28;20189;-93
2024/01/21 01:35:12;;;;;;;13.70;6.00;;;;;;;3.21;70.50;100273.13;5074933;28;20221;-93
2024/01/21 01:37:39;;;;;;;13.33;6.47;;;;;;;3.28;70.53;100268.75;5075297;28;20181;-92
2024/01/21 01:40:06;;;;;;;9.97;4.53;;;;;;;3.27;70.66;100273.09;5075974;28;20177;-94
2024/01/21 01:42:33;;;;;;;15.47;6.50;;;;;;;3.24;71.29;100267.06;5074943;28;20177;-93
2024/01/21 01:44:59;;;;;;;11.90;5.20;;;;;;;3.28;71.36;100276.53;5076427;28;20176;-94
2024/01/21 01:47:26;;;;;;;10.87;5.83;;;;;;;3.19;71.41;100276.59;5074873;28;20271;-94
2024/01/21 01:49:54;;;;;;;21.27;7.67;;;;;;;3.22;71.51;100274.00;5090282;28;20186;-93
2024/01/21 01:52:22;;;;;;;11.57;5.33;;;;;;;3.27;71.54;100272.22;5078988;28;20223;-93
2024/01/21 01:54:49;;;;;;;11.30;4.30;;;;;;;3.32;71.36;100267.88;5075156;28;20205;-94
2024/01/21 01:57:15;;;;;;;9.37;4.03;;;;;;;3.33;71.50;100269.63;5075508;28;20268;-93
2024/01/21 01:59:41;;;;;;;15.93;7.27;;;;;;;3.44;71.08;100273.00;5075317;28;20173;-94
2024/01/21 02:02:07;;;;;;;9.33;4.97;;;;;;;3.37;71.14;100272.19;5074647;28;20177;-94
2024/01/21 02:04:34;;;;;;;8.87;4.67;;;;;;;3.41;71.17;100279.06;5075715;28;20180;-93
2024/01/21 02:07:01;;;;;;;9.90;4.40;;;;;;;3.52;71.16;100279.84;5075646;28;20618;-93
2024/01/21 02:09:28;;;;;;;8.30;3.07;;;;;;;3.50;71.24;100280.72;5074801;28;20307;-93
2024/01/21 02:11:54;;;;;;;10.57;4.93;;;;;;;3.50;71.18;100281.59;5081290;28;20207;-93
2024/01/21 02:14:20;;;;;;;12.23;5.73;;;;;;;3.53;71.02;100281.59;5095004;28;20680;-93
2024/01/21 02:16:45;;;;;;;13.43;6.53;;;;;;;3.65;70.64;100283.22;5078827;28;20193;-93
2024/01/21 02:19:25;;;;;;;14.07;5.67;;;;;;;3.59;70.63;100280.69;5074413;28;20654;-93
2024/01/21 02:21:53;;;;;;;23.63;7.60;;;;;;;3.66;70.85;100287.56;5075569;28;20610;-92
2024/01/21 02:24:19;;;;;;;25.73;10.13;;;;;;;3.65;70.81;100280.63;5089077;28;20767;-93
2024/01/21 02:26:44;;;;;;;7.53;4.03;;;;;;;3.71;69.87;100281.47;5094405;28;20180;-94
2024/01/21 02:29:10;;;;;;;9.77;3.80;;;;;;;3.72;70.57;100288.34;5101572;28;20667;-93
2024/01/21 02:31:36;;;;;;;8.37;3.53;;;;;;;3.80;70.37;100280.53;5115426;28;20198;-94
2024/01/21 02:34:03;;;;;;;6.47;3.07;;;;;;;3.78;70.37;100290.06;5114856;28;20199;-93
2024/01/21 02:36:28;;;;;;;3.30;1.97;;;;;;;3.83;70.58;100288.28;5099869;28;20188;-93
2024/01/21 02:38:55;;;;;;;7.10;3.43;;;;;;;3.82;70.34;100289.19;5094697;28;20552;-94
2024/01/21 02:41:22;;;;;;;11.53;4.03;;;;;;;3.78;70.25;100297.84;5096674;28;20187;-93
2024/01/21 02:43:47;;;;;;;9.10;3.27;;;;;;;3.85;70.31;100298.66;5115535;28;20233;-93
2024/01/21 02:46:12;;;;;;;19.03;7.20;;;;;;;3.83;70.32;100308.16;5114875;28;20183;-93
2024/01/21 02:48:39;;;;;;;11.43;5.70;;;;;;;3.86;70.30;100297.78;5110337;28;20176;-93
2024/01/21 02:51:05;;;;;;;8.20;3.23;;;;;;;3.94;70.43;100303.78;5094103;28;20185;-93
2024/01/21 02:53:31;;;;;;;8.03;4.33;;;;;;;3.90;69.68;100308.13;5094764;28;20184;-92
2024/01/21 02:55:58;;;;;;;8.63;4.17;;;;;;;3.98;70.20;100308.94;5095255;28;20259;-93
2024/01/21 02:58:23;;;;;;;7.37;3.57;;;;;;;3.82;70.28;100312.53;5094130;28;20183;-93
2024/01/21 03:00:49;;;;;;;6.77;3.10;;;;;;;3.84;70.38;100304.72;5101949;28;20179;-92
2024/01/21 03:03:15;;;;;;;8.67;3.97;;;;;;;3.75;70.80;100305.63;5113455;28;20178;-92
2024/01/21 03:05:42;;;;;;;10.53;4.20;;;;;;;3.79;70.67;100303.88;5098259;28;20195;-93
2024/01/21 03:08:09;;;;;;;15.33;6.93;;;;;;;3.76;70.94;100299.59;5094713;28;20702;-93
2024/01/21 03:10:35;;;;;;;14.23;5.93;;;;;;;3.85;70.78;100304.72;5093825;28;20191;-92
2024/01/21 03:13:02;;;;;;;11.07;4.97;;;;;;;3.85;70.69;100303.84;5093524;28;20178;-93
2024/01/21 03:15:27;;;;;;;10.13;4.47;;;;;;;3.85;70.45;100299.53;5106146;28;20211;-92
2024/01/21 03:17:54;;;;;;;5.53;3.27;;;;;;;3.92;70.85;100305.53;5113841;28;20518;-92
2024/01/21 03:20:19;;;;;;;8.60;4.50;;;;;;;3.90;70.97;100302.97;5113988;28;20274;-93
2024/01/21 03:22:46;;;;;;;9.13;3.43;;;;;;;3.97;70.46;100304.63;5114020;28;20218;-93
2024/01/21 03:25:12;;;;;;;7.53;3.50;;;;;;;4.04;70.54;100303.69;5094558;28;20176;-92
2024/01/21 03:27:38;;;;;;;7.90;3.37;;;;;;;4.10;70.20;100313.16;5094548;28;20176;-93
2024/01/21 03:30:04;;;;;;;6.10;2.73;;;;;;;4.06;69.84;100309.72;5093238;28;20187;-92
2024/01/21 03:32:31;;;;;;;7.43;4.10;;;;;;;4.02;70.25;100307.16;5093974;28;20525;-93
2024/01/21 03:34:56;;;;;;;6.77;3.90;;;;;;;3.98;70.89;100305.50;5093873;28;20200;-92
2024/01/21 03:37:22;;;;;;;9.13;3.93;;;;;;;3.96;70.56;100305.47;5093333;28;20697;-92
2024/01/21 03:39:47;;;;;;;8.30;3.90;;;;;;;4.07;70.74;100297.63;5094079;28;20172;-92
2024/01/21 03:42:15;;;;;;;7.27;3.50;;;;;;;4.14;70.13;100297.56;5100348;28;20183;-92
2024/01/21 03:44:40;;;;;;;7.53;3.60;;;;;;;4.08;70.64;100300.22;5114804;28;20506;-93
2024/01/21 03:47:06;;;;;;;8.03;3.67;;;;;;;4.11;70.29;100296.75;5104052;28;20275;-92
2024/01/21 03:49:33;;;;;;;6.93;3.73;;;;;;;4.16;70.28;100297.56;5094279;28;20253;-93
2024/01/21 03:51:59;;;;;;;8.40;4.20;;;;;;;4.14;70.27;100297.56;5094129;28;20184;-92
2024/01/21 03:54:25;;;;;;;6.50;3.40;;;;;;;4.19;70.02;100288.00;5093866;28;20189;-93
2024/01/21 03:56:51;;;;;;;8.37;4.13;;;;;;;4.30;70.21;100296.56;5094204;28;20591;-93
2024/01/21 03:59:16;;;;;;;7.30;3.80;;;;;;;4.23;70.40;100302.69;5093921;28;20188;-93
2024/01/21 04:01:46;;;;;;;5.40;3.00;;;;;;;4.16;69.98;100301.03;5093518;28;20176;-92
2024/01/21 04:04:13;;;;;;;7.40;2.43;;;;;;;4.17;70.40;100297.53;5092976;28;20176;-93
2024/01/21 04:06:41;;;;;;;8.77;3.73;;;;;;;4.21;70.29;100295.78;5093121;28;20598;-93
2024/01/21 04:09:06;;;;;;;7.37;3.03;;;;;;;4.13;70.67;100306.22;5093255;28;20184;-93
2024/01/21 04:11:33;;;;;;;4.57;2.70;;;;;;;3.80;71.92;100298.69;5093021;28;20621;-94
2024/01/21 04:13:59;;;;;;;7.03;4.20;;;;;;;4.02;71.83;100302.84;5111823;28;20327;-93
2024/01/21 04:16:25;;;;;;;7.13;3.97;;;;;;;4.04;71.83;100302.81;5118049;28;20189;-93
2024/01/21 04:18:52;;;;;;;8.80;3.63;;;;;;;4.10;71.55;100305.38;5118341;28;20259;-93
2024/01/21 04:21:18;;;;;;;8.27;4.20;;;;;;;4.16;71.44;100311.41;5098320;28;20241;-94
2024/01/21 04:23:44;;;;;;;9.07;4.33;;;;;;;4.19;71.14;100293.19;5110257;28;20179;-94
2024/01/21 04:26:10;;;;;;;7.43;4.50;;;;;;;4.23;70.99;100300.09;5118390;28;20168;-93
2024/01/21 04:28:37;;;;;;;6.73;3.03;;;;;;;4.11;70.59;100302.78;5119797;27;20183;-92
2024/01/21 04:31:03;;;;;;;10.27;4.17;;;;;;;4.21;70.86;100311.34;5138339;27;20627;-94
2024/01/21 04:33:30;;;;;;;8.53;4.47;;;;;;;4.23;70.99;100309.59;5120397;27;20532;-93
2024/01/21 04:35:56;;;;;;;9.00;4.23;;;;;;;4.17;71.05;100310.50;5138415;27;20186;-93
2024/01/21 04:38:25;;;;;;;9.73;4.53;;;;;;;4.09;70.97;100314.03;5121095;27;20176;-91
2024/01/21 04:40:51;;;;;;;7.97;4.23;;;;;;;4.03;71.22;100319.28;5120360;27;20259;-92
2024/01/21 04:43:18;;;;;;;8.60;4.37;;;;;;;4.02;72.34;100328.78;5120025;27;20193;-93
2024/01/21 04:45:43;;;;;;;9.13;4.67;;;;;;;4.04;71.80;100327.03;5113497;28;20647;-92
2024/01/21 04:48:10;;;;;;;7.00;3.83;;;;;;;3.99;71.99;100334.00;5099746;28;20199;-92
2024/01/21 04:50:35;;;;;;;7.97;3.83;;;;;;;4.02;71.85;100335.72;5099686;28;20537;-92
2024/01/21 04:53:02;;;;;;;11.00;5.13;;;;;;;4.14;71.42;100333.03;5120228;27;20611;-92
2024/01/21 04:55:27;;;;;;;8.17;4.90;;;;;;;4.13;71.82;100336.50;5138616;27;20195;-93
2024/01/21 04:57:54;;;;;;;8.97;4.17;;;;;;;3.96;72.03;100339.19;5120059;27;20175;-93
2024/01/21 05:00:19;;;;;;;8.13;4.70;;;;;;;3.95;72.46;100332.31;5138212;27;20167;-92
2024/01/21 05:02:46;;;;;;;10.50;4.50;;;;;;;4.02;71.83;100333.97;5119725;27;20206;-93
2024/01/21 05:05:13;;;;;;;9.10;5.13;;;;;;;4.06;72.08;100338.25;5137942;27;20167;-94
2024/01/21 05:07:38;;;;;;;11.53;5.57;;;;;;;4.12;71.68;100347.75;5138153;27;20175;-93
2024/01/21 05:10:05;;;;;;;12.60;4.87;;;;;;;4.18;71.60;100339.91;5120138;27;20185;-93
2024/01/21 05:12:32;;;;;;;11.17;5.40;;;;;;;4.05;71.29;100351.25;5119932;27;20179;-94
2024/01/21 05:14:57;;;;;;;14.20;6.10;;;;;;;4.02;71.87;100351.28;5119657;27;20241;-93
2024/01/21 05:17:24;;;;;;;11.00;5.50;;;;;;;4.04;71.89;100342.59;5137474;27;20202;-93
2024/01/21 05:19:50;;;;;;;9.73;4.53;;;;;;;3.97;72.20;100353.91;5119059;27;20270;-93
2024/01/21 05:22:16;;;;;;;9.57;5.70;;;;;;;4.10;71.89;100354.69;5119660;27;20270;-93
2024/01/21 05:24:42;;;;;;;9.13;3.57;;;;;;;4.14;71.59;100352.03;5110816;28;20180;-92
2024/01/21 05:27:08;;;;;;;10.87;4.73;;;;;;;4.10;70.97;100355.53;5098979;28;20183;-93
2024/01/21 05:29:33;;;;;;;9.13;4.43;;;;;;;4.10;71.43;100357.28;5099188;28;20196;-94
2024/01/21 05:32:00;;;;;;;11.00;5.60;;;;;;;4.18;71.43;100360.69;5112831;27;20214;-93
2024/01/21 05:34:27;;;;;;;11.10;5.20;;;;;;;4.31;70.62;100367.50;5119395;27;20195;-93
2024/01/21 05:36:52;;;;;;;12.60;5.50;;;;;;;4.27;70.63;100369.25;5119517;27;20202;-94
2024/01/21 05:39:19;;;;;;;13.40;5.67;;;;;;;4.24;70.36;100365.84;5132831;27;20635;-93
2024/01/21 05:42:00;;;;;;;7.83;3.73;;;;;;;4.20;70.46;100374.50;5099170;28;20207;-93
2024/01/21 05:44:27;;;;;;;6.90;4.00;;;;;;;4.30;70.25;100379.59;5101504;27;20525;-92
2024/01/21 05:46:52;;;;;;;10.80;5.17;;;;;;;4.18;70.19;100377.13;5137703;27;20733;-93
2024/01/21 05:49:19;;;;;;;7.73;4.03;;;;;;;4.24;70.36;100386.59;5119149;27;20265;-93
2024/01/21 05:51:46;;;;;;;10.27;5.27;;;;;;;4.19;71.24;100391.78;5119252;27;20167;-94
2024/01/21 05:54:12;;;;;;;11.77;4.47;;;;;;;4.34;71.09;100388.25;5118859;27;20203;-93
2024/01/21 05:56:37;;;;;;;12.87;5.27;;;;;;;4.38;70.41;100395.13;5118908;27;20294;-94
2024/01/21 05:59:04;;;;;;;12.53;5.10;;;;;;;4.43;70.20;100395.94;5118833;27;20167;-94
2024/01/21 06:01:30;;;;;;;9.23;4.80;;;;;;;4.40;70.20;100398.59;5118671;27;20207;-93
2024/01/21 06:03:57;;;;;;;10.23;4.97;;;;;;;4.40;70.69;100408.97;5136900;27;20175;-93
2024/01/21 06:06:25;;;;;;;10.10;5.20;;;;;;;4.52;69.94;100408.00;5107045;27;20187;-93
2024/01/21 06:08:51;;;;;;;7.33;4.40;;;;;;;4.46;69.56;100408.03;5100693;27;20184;-94
2024/01/21 06:11:19;;;;;;;11.80;5.43;;;;;;;4.42;69.67;100417.59;5101525;27;20202;-93
2024/01/21 06:13:45;;;;;;;12.07;5.60;;;;;;;4.28;70.54;100417.69;5108477;28;20613;-94
2024/01/21 06:16:20;;;;;;;11.27;5.43;;;;;;;4.28;70.64;100415.09;5102840;27;20178;-92
2024/01/21 06:18:47;;;;;;;11.07;4.80;;;;;;;4.41;70.17;100425.38;5114464;28;20220;-94
2024/01/21 06:21:16;;;;;;;6.93;3.93;;;;;;;4.41;70.55;100425.38;5106057;27;20578;-93
2024/01/21 06:23:42;;;;;;;14.23;5.80;;;;;;;4.46;70.18;100421.88;5118073;27;20266;-94
2024/01/21 06:26:19;;;;;;;13.23;5.27;;;;;;;4.50;69.50;100423.59;5118148;27;20211;-94
2024/01/21 06:28:52;;;;;;;15.93;7.13;;;;;;;4.50;69.54;100430.53;5111344;27;20199;-93
2024/01/21 06:31:19;;;;;;;13.70;6.17;;;;;;;4.62;69.69;100430.41;5124177;27;20183;-94
2024/01/21 06:33:44;;;;;;;13.17;5.80;;;;;;;4.66;69.60;100433.00;5112608;27;20192;-93
2024/01/21 06:36:10;;;;;;;12.47;5.03;;;;;;;4.71;68.78;100432.94;5121358;27;20184;-93
2024/01/21 06:38:37;;;;;;;10.63;5.77;;;;;;;4.57;68.59;100437.38;5110815;27;20270;-93
2024/01/21 06:41:03;;;;;;;8.63;4.70;;;;;;;4.59;68.61;100448.59;5113240;27;20190;-93
2024/01/21 06:43:34;;;;;;;12.27;6.37;;;;;;;4.57;68.67;100453.81;5111420;27;20278;-95
2024/01/21 06:45:59;;;;;;;10.80;5.03;;;;;;;4.46;69.41;100453.03;5113631;27;20808;-93
2024/01/21 06:48:28;;;;;;;14.60;6.27;;;;;;;4.55;69.49;100449.53;5101697;28;20245;-93
2024/01/21 06:50:53;;;;;;;12.07;5.87;;;;;;;4.73;69.58;100455.44;5102145;27;20187;-93
2024/01/21 06:53:20;;;;;;;19.07;6.27;;;;;;;4.77;69.14;100461.47;5100532;28;20563;-94
2024/01/21 06:55:46;;;;;;;13.03;6.57;;;;;;;4.64;69.51;100459.84;5106091;27;20252;-93
2024/01/21 06:58:12;;;;;;;16.53;7.10;;;;;;;4.62;69.53;100462.44;5114429;27;20183;-92
2024/01/21 07:00:38;;;;;;;117.20;41.40;;;;;;;4.70;69.86;100464.97;5110836;27;20279;-92
2024/01/21 07:03:03;;;;;;;37.30;16.00;;;;;;;4.87;70.14;100463.97;5100211;28;20183;-94
2024/01/21 07:05:29;;;;;;;20.43;8.93;;;;;;;4.92;69.82;100472.59;5103983;27;20240;-93
2024/01/21 07:07:55;;;;;;;17.50;7.53;;;;;;;5.07;70.05;100471.59;5116750;27;20245;-92
2024/01/21 07:10:20;;;;;;;17.93;7.70;;;;;;;5.08;69.73;100472.47;5112571;27;20719;-93
2024/01/21 07:12:46;;;;;;;12.97;6.03;;;;;;;4.93;69.37;100476.91;5106695;28;20184;-94
2024/01/21 07:15:12;;;;;;;12.10;6.00;;;;;;;5.07;69.38;100474.19;5105568;27;20202;-94
2024/01/21 07:17:39;;;;;;;14.07;6.67;;;;;;;5.15;69.23;100475.00;5103851;28;20226;-93
2024/01/21 07:20:05;;;;;;;8.90;4.93;;;;;;;5.20;69.25;100473.19;5112597;27;20190;-94
2024/01/21 07:22:31;;;;;;;12.93;6.73;;;;;;;5.33;69.23;100468.75;5117556;27;20247;-93
2024/01/21 07:24:56;;;;;;;13.37;6.30;;;;;;;5.56;68.19;100467.63;5117516;27;20194;-93
2024/01/21 07:27:22;;;;;;;14.67;6.80;;;;;;;5.67;67.35;100469.22;5135152;27;20179;-93
2024/01/21 07:29:47;;;;;;;12.33;6.10;;;;;;;5.61;66.55;100469.31;5116884;27;20227;-93
2024/01/21 07:32:13;;;;;;;11.00;5.53;;;;;;;5.57;66.29;100471.09;5117223;27;20240;-94
2024/01/21 07:34:38;;;;;;;13.77;6.17;;;;;;;5.67;65.84;100483.09;5116778;27;20313;-94
2024/01/21 07:37:04;;;;;;;13.77;6.10;;;;;;;5.71;66.03;100486.53;5135393;27;20186;-93
2024/01/21 07:39:29;;;;;;;9.93;5.10;;;;;;;5.64;66.56;100484.88;5118076;28;20191;-94
2024/01/21 07:41:55;;;;;;;14.63;5.70;;;;;;;5.70;66.53;100479.59;5135094;27;20517;-93
2024/01/21 07:44:20;;;;;;;13.93;6.13;;;;;;;5.58;65.86;100485.81;5112619;28;20557;-94
2024/01/21 07:46:46;;;;;;;14.67;6.80;;;;;;;5.56;65.90;100483.22;5114248;28;20179;-93
2024/01/21 07:49:11;;;;;;;13.67;7.63;;;;;;;5.67;65.64;100475.31;5096176;28;20183;-93
2024/01/21 07:51:37;;;;;;;9.70;4.87;;;;;;;5.78;65.31;100483.84;5116103;28;20189;-94
2024/01/21 07:54:02;;;;;;;13.77;6.20;;;;;;;5.73;65.41;100479.56;5134738;28;20205;-93
2024/01/21 07:56:28;;;;;;;14.63;6.40;;;;;;;5.68;64.93;100481.38;5117234;28;20205;-92
2024/01/21 07:58:54;;;;;;;20.03;10.03;;;;;;;5.70;65.14;100484.81;5135007;28;20258;-92
2024/01/21 08:01:21;;;;;;;18.60;7.47;;;;;;;5.73;65.72;100493.44;5134721;28;20179;-92
2024/01/21 08:03:47;;;;;;;17.83;7.90;;;;;;;5.76;65.84;100498.63;5135019;28;20175;-93
2024/01/21 08:06:13;;;;;;;13.77;5.80;;;;;;;5.70;65.63;100497.81;5134483;28;20179;-92
2024/01/21 08:08:38;;;;;;;13.97;6.23;;;;;;;5.72;65.33;100504.72;5116189;28;20693;-91
2024/01/21 08:11:04;;;;;;;11.60;5.50;;;;;;;5.83;65.68;100502.00;5134594;28;20198;-91
2024/01/21 08:13:30;;;;;;;13.27;5.70;;;;;;;5.94;65.76;100497.56;5116406;28;20174;-90
2024/01/21 08:15:55;;;;;;;16.23;6.57;;;;;;;5.99;65.91;100499.25;5116169;28;20208;-91
2024/01/21 08:18:21;;;;;;;11.00;5.33;;;;;;;6.08;65.68;100498.25;5134549;28;20175;-90
2024/01/21 08:20:47;;;;;;;10.00;5.40;;;;;;;6.11;65.94;100498.22;5116315;28;20269;-90
2024/01/21 08:23:13;;;;;;;14.23;6.57;;;;;;;6.04;66.64;100497.44;5134236;28;20189;-90
2024/01/21 08:25:38;;;;;;;11.33;5.47;;;;;;;6.16;66.64;100501.59;5134203;28;20171;-90
2024/01/21 08:28:04;;;;;;;11.37;5.03;;;;;;;6.18;65.25;100500.72;5134105;28;20189;-90
2024/01/21 08:30:30;;;;;;;15.43;7.07;;;;;;;6.23;66.16;100502.41;5133970;28;20271;-89
2024/01/21 08:32:55;;;;;;;15.03;6.90;;;;;;;6.29;65.79;100504.94;5134296;28;20186;-89
2024/01/21 08:35:21;;;;;;;9.10;4.30;;;;;;;6.29;65.27;100503.16;5133815;28;20207;-89
2024/01/21 08:37:47;;;;;;;14.37;6.03;;;;;;;6.32;65.12;100503.13;5133913;28;20266;-89
2024/01/21 08:40:13;;;;;;;12.10;5.33;;;;;;;6.44;63.74;100510.78;5133823;28;20643;-89
2024/01/21 08:42:39;;;;;;;14.50;5.40;;;;;;;6.53;64.09;100515.84;5133495;28;20175;-89
2024/01/21 08:45:05;;;;;;;11.73;5.47;;;;;;;6.62;64.31;100514.88;5115723;28;20601;-89
2024/01/21 08:47:31;;;;;;;15.67;5.40;;;;;;;6.60;63.18;100517.47;5115611;28;20287;-89
2024/01/21 08:49:56;;;;;;;16.20;6.07;;;;;;;6.69;62.32;100519.97;5134463;28;20184;-89
2024/01/21 08:52:22;;;;;;;10.67;5.13;;;;;;;6.88;61.78;100519.69;5134022;28;20182;-89
2024/01/21 08:54:47;;;;;;;12.17;5.70;;;;;;;6.93;61.30;100513.53;5133795;28;20664;-89
2024/01/21 08:57:13;;;;;;;10.37;4.43;;;;;;;7.02;60.08;100513.38;5133780;28;20625;-89
2024/01/21 08:59:38;;;;;;;10.50;4.83;;;;;;;7.25;61.37;100515.59;5116214;27;20182;-90
2024/01/21 09:02:04;;;;;;;10.63;4.87;;;;;;;7.46;60.64;100512.63;5137924;27;20174;-91
2024/01/21 09:04:30;;;;;;;9.27;4.60;;;;;;;7.73;58.90;100504.25;5137638;27;20167;-92
2024/01/21 09:06:55;;;;;;;9.83;4.97;;;;;;;7.74;60.03;100511.22;5130985;27;20252;-91
2024/01/21 09:09:20;;;;;;;13.27;5.63;;;;;;;7.84;59.20;100510.13;5117176;28;20197;-91
2024/01/21 09:11:47;;;;;;;10.17;4.43;;;;;;;7.92;58.57;100508.25;5117523;28;20179;-91
2024/01/21 09:14:12;;;;;;;13.87;5.67;;;;;;;7.90;58.19;100504.81;5132006;27;20195;-91
2024/01/21 09:16:38;;;;;;;10.53;4.33;;;;;;;7.86;57.25;100503.13;5119480;27;20197;-91
2024/01/21 09:19:05;;;;;;;14.73;5.87;;;;;;;7.67;57.36;100507.00;5119520;27;20185;-93
2024/01/21 09:21:32;;;;;;;13.83;6.20;;;;;;;7.61;59.35;100503.63;5099852;28;20176;-94
2024/01/21 09:24:01;;;;;;;15.30;7.10;;;;;;;7.80;59.05;100500.66;5115287;27;20191;-93
2024/01/21 09:39:28;;;;;;;30.60;18.93;;;;;;;7.46;59.93;100496.97;5723148;23;20260;-94
2024/01/21 09:41:55;;;;;;;15.97;7.67;;;;;;;7.36;59.93;100495.41;5055706;28;20186;-92
2024/01/21 09:44:26;;;;;;;13.63;5.83;;;;;;;7.41;59.99;100497.06;5036032;28;20179;-93
2024/01/21 09:46:56;;;;;;;14.03;5.57;;;;;;;7.66;60.39;100497.44;5018517;28;20240;-91
2024/01/21 09:53:41;;;;;;;22.27;9.17;;;;;;;7.65;60.68;100485.28;4956255;29;20696;-92
2024/01/21 09:56:09;;;;;;;13.13;4.77;;;;;;;7.59;61.10;100476.72;4957705;28;20654;-93
2024/01/21 09:58:44;;;;;;;17.13;7.17;;;;;;;7.55;60.84;100468.09;5044769;28;20193;-94
2024/01/21 10:01:10;;;;;;;8.53;4.73;;;;;;;7.31;60.93;100468.56;5058275;28;20169;-94
2024/01/21 10:03:35;;;;;;;9.47;3.90;;;;;;;7.15;61.40;100462.75;5044405;28;20174;-95
2024/01/21 10:06:01;;;;;;;9.37;4.57;;;;;;;7.33;61.52;100466.78;5043397;28;20214;-94
2024/01/21 10:08:27;;;;;;;11.47;4.33;;;;;;;7.19;62.00;100469.63;5050545;28;20186;-95
2024/01/21 10:10:54;;;;;;;8.83;4.40;;;;;;;7.13;63.32;100464.50;5036186;28;20197;-95
2024/01/21 10:13:19;;;;;;;25.77;9.90;;;;;;;7.43;63.54;100460.50;5036289;28;20209;-95
2024/01/21 10:15:45;;;;;;;12.83;5.33;;;;;;;7.31;62.69;100452.91;5066185;28;20228;-95
2024/01/21 10:18:11;;;;;;;58.30;24.07;;;;;;;7.59;62.23;100448.88;5043879;28;20193;-96
2024/01/21 10:20:42;;;;;;;12.77;6.67;;;;;;;7.59;60.67;100454.09;5048253;28;20185;-96
2024/01/21 10:23:30;;;;;;;14.87;6.17;;;;;;;7.58;60.81;100447.16;5043109;28;20272;-96
2024/01/21 10:30:00;;;;;;;12.03;4.70;;;;;;;7.37;61.31;100455.38;4955418;29;20545;-94
2024/01/21 10:32:26;;;;;;;8.03;3.67;;;;;;;6.95;61.49;100458.75;4905241;28;20328;-92
2024/01/21 10:34:52;;;;;;;9.37;4.43;;;;;;;6.79;62.38;100460.75;5051125;28;20201;-94
2024/01/21 10:37:18;;;;;;;10.67;5.27;;;;;;;6.66;62.97;100459.22;5057179;28;20203;-93
2024/01/21 10:39:45;;;;;;;10.90;5.73;;;;;;;6.59;64.78;100461.06;5072822;28;20235;-92
2024/01/21 10:42:13;;;;;;;11.03;5.57;;;;;;;6.62;65.69;100466.25;5036805;28;20577;-93
2024/01/21 10:44:40;;;;;;;12.53;6.17;;;;;;;6.95;63.81;100459.59;5037420;28;20181;-94
2024/01/21 10:47:07;;;;;;;13.53;6.37;;;;;;;7.13;65.08;100454.06;5054378;28;20182;-95
2024/01/21 10:49:34;;;;;;;17.80;9.10;;;;;;;7.01;64.05;100464.72;5037277;28;20183;-94
2024/01/21 10:52:00;;;;;;;15.23;6.40;;;;;;;6.85;64.55;100463.25;5037186;28;20264;-96
2024/01/21 10:54:27;;;;;;;19.07;6.90;;;;;;;6.72;63.20;100462.59;5032029;28;20198;-94
2024/01/21 10:57:06;;;;;;;;;;;;;;;;;;;;;
2024/01/21 10:59:38;;;;;;;19.23;6.37;;;;;;;6.74;64.66;100460.81;5043941;28;20196;-94
2024/01/21 11:02:45;;;;;;;;;;;;;;;;;;;;;
2024/01/21 11:06:15;;;;;;;19.40;8.77;;;;;;;6.59;65.04;100471.50;5050671;28;20210;-93
2024/01/21 11:08:45;;;;;;;28.43;11.33;;;;;;;6.87;64.88;100456.28;4995628;28;20635;-93
2024/01/21 11:11:20;;;;;;;10.50;4.67;;;;;;;6.84;63.16;100465.91;5046970;28;20196;-96
2024/01/21 11:13:48;;;;;;;14.83;6.63;;;;;;;6.74;65.25;100458.22;5050550;28;20302;-93
2024/01/21 11:16:29;;;;;;;17.47;7.47;;;;;;;6.92;63.62;100449.22;5048215;28;20188;-94
2024/01/21 11:19:09;;;;;;;17.87;6.80;;;;;;;7.20;63.46;100450.50;5056805;28;20607;-93
2024/01/21 11:21:42;;;;;;;18.00;8.53;;;;;;;7.27;63.17;100443.41;5074488;28;20227;-93
2024/01/21 11:24:13;;;;;;;18.80;7.80;;;;;;;7.05;63.40;100442.09;5058001;28;20177;-94
2024/01/21 11:26:42;;;;;;;11.23;4.93;;;;;;;7.26;63.28;100432.09;5056426;28;20184;-95
2024/01/21 11:29:27;;;;;;;11.50;5.43;;;;;;;7.43;60.33;100421.38;5044184;28;20201;-94
2024/01/21 11:32:00;;;;;;;10.83;4.40;;;;;;;7.42;59.22;100435.28;5048771;28;20181;-94
2024/01/21 11:34:31;;;;;;;7.97;3.17;;;;;;;7.43;58.79;100421.38;5027886;28;20198;-94
2024/01/21 11:36:57;;;;;;;40.70;10.57;;;;;;;7.47;59.72;100417.78;5035823;28;20197;-94
2024/01/21 11:39:24;;;;;;;100.00;28.90;;;;;;;7.82;59.55;100425.78;5032158;28;20722;-94
2024/01/21 11:41:51;;;;;;;9.60;4.20;;;;;;;7.63;57.48;100418.34;5040067;28;20199;-93
2024/01/21 11:44:28;;;;;;;10.20;4.00;;;;;;;7.48;57.65;100424.75;5036898;28;20174;-93
2024/01/21 11:46:56;;;;;;;8.20;3.10;;;;;;;7.48;59.01;100423.88;5040670;28;20186;-93
2024/01/21 11:49:22;;;;;;;6.43;3.43;;;;;;;7.37;58.21;100421.47;5038446;28;20182;-94
2024/01/21 11:51:48;;;;;;;17.63;6.53;;;;;;;7.58;59.88;100417.59;5034881;28;20194;-92